sensor_id;sensor_type;location;lat;lon;timestamp;P1;durP1;ratioP1;P2;durP2;ratioP2
6467;SDS011;3267;48.794;9.928;2023-04-15T04:02:01;1.58;;;1.48;;
6467;SDS011;3267;48.794;9.928;2023-04-15T04:04:27;1.50;;;1.40;;
6467;SDS011;3267;48.794;9.928;2023-04-15T04:06:53;1.63;;;1.20;;
6467;SDS011;3267;48.794;9.928;2023-04-15T04:09:20;2.13;;;1.30;;
6467;SDS011;3267;48.794;9.928;2023-04-15T04:11:46;0.90;;;0.90;;
6467;SDS011;3267;48.794;9.928;2023-04-15T04:14:12;1.13;;;1.02;;
6467;SDS011;3267;48.794;9.928;2023-04-15T04:16:38;1.10;;;1.00;;
6467;SDS011;3267;48.794;9.928;2023-04-15T04:19:04;1.05;;;0.93;;
6467;SDS011;3267;48.794;9.928;2023-04-15T04:21:30;1.08;;;0.90;;
6467;SDS011;3267;48.794;9.928;2023-04-15T04:23:58;1.73;;;1.02;;
6467;SDS011;3267;48.794;9.928;2023-04-15T04:26:24;1.13;;;1.00;;
6467;SDS011;3267;48.794;9.928;2023-04-15T04:28:51;3.13;;;1.10;;
6467;SDS011;3267;48.794;9.928;2023-04-15T04:31:17;1.10;;;1.10;;
6467;SDS011;3267;48.794;9.928;2023-04-15T04:33:43;1.13;;;1.10;;
6467;SDS011;3267;48.794;9.928;2023-04-15T04:36:09;2.15;;;1.58;;
6467;SDS011;3267;48.794;9.928;2023-04-15T04:38:35;2.10;;;1.35;;
6467;SDS011;3267;48.794;9.928;2023-04-15T04:41:01;1.58;;;1.30;;
6467;SDS011;3267;48.794;9.928;2023-04-15T04:43:28;1.83;;;1.30;;
6467;SDS011;3267;48.794;9.928;2023-04-15T04:45:55;1.10;;;1.10;;
6467;SDS011;3267;48.794;9.928;2023-04-15T04:48:21;2.00;;;1.50;;
6467;SDS011;3267;48.794;9.928;2023-04-15T04:50:47;1.85;;;1.75;;
6467;SDS011;3267;48.794;9.928;2023-04-15T04:53:13;1.55;;;1.45;;
6467;SDS011;3267;48.794;9.928;2023-04-15T04:55:39;2.83;;;1.55;;
6467;SDS011;3267;48.794;9.928;2023-04-15T04:58:05;2.22;;;1.77;;
6467;SDS011;3267;48.794;9.928;2023-04-15T05:00:31;1.42;;;1.33;;
6467;SDS011;3267;48.794;9.928;2023-04-15T05:02:57;4.32;;;2.05;;
6467;SDS011;3267;48.794;9.928;2023-04-15T05:05:23;5.33;;;2.20;;
6467;SDS011;3267;48.794;9.928;2023-04-15T05:07:50;2.07;;;1.80;;
6467;SDS011;3267;48.794;9.928;2023-04-15T05:10:16;2.90;;;2.15;;
6467;SDS011;3267;48.794;9.928;2023-04-15T05:12:42;5.28;;;2.58;;
6467;SDS011;3267;48.794;9.928;2023-04-15T05:15:09;2.42;;;2.22;;
6467;SDS011;3267;48.794;9.928;2023-04-15T05:17:35;3.78;;;2.83;;
6467;SDS011;3267;48.794;9.928;2023-04-15T05:20:01;4.20;;;2.47;;
6467;SDS011;3267;48.794;9.928;2023-04-15T05:22:27;5.77;;;2.70;;
6467;SDS011;3267;48.794;9.928;2023-04-15T05:24:53;5.05;;;2.97;;
6467;SDS011;3267;48.794;9.928;2023-04-15T05:27:20;3.42;;;3.13;;
6467;SDS011;3267;48.794;9.928;2023-04-15T05:29:48;5.28;;;3.95;;
6467;SDS011;3267;48.794;9.928;2023-04-15T05:32:14;3.63;;;3.00;;
6467;SDS011;3267;48.794;9.928;2023-04-15T05:34:40;3.60;;;3.07;;
6467;SDS011;3267;48.794;9.928;2023-04-15T05:37:06;5.10;;;3.00;;
6467;SDS011;3267;48.794;9.928;2023-04-15T05:39:32;4.13;;;2.80;;
6467;SDS011;3267;48.794;9.928;2023-04-15T05:41:58;3.00;;;2.47;;
6467;SDS011;3267;48.794;9.928;2023-04-15T05:44:24;2.67;;;2.47;;
6467;SDS011;3267;48.794;9.928;2023-04-15T05:46:50;3.65;;;2.20;;
6467;SDS011;3267;48.794;9.928;2023-04-15T05:49:17;2.08;;;1.90;;
6467;SDS011;3267;48.794;9.928;2023-04-15T05:51:43;2.47;;;1.80;;
6467;SDS011;3267;48.794;9.928;2023-04-15T05:54:09;4.80;;;2.20;;
6467;SDS011;3267;48.794;9.928;2023-04-15T05:56:35;2.60;;;2.33;;
6467;SDS011;3267;48.794;9.928;2023-04-15T05:59:01;2.20;;;2.00;;
6467;SDS011;3267;48.794;9.928;2023-04-15T06:01:28;3.30;;;2.63;;
6467;SDS011;3267;48.794;9.928;2023-04-15T06:03:54;3.85;;;2.30;;
6467;SDS011;3267;48.794;9.928;2023-04-15T06:06:20;3.90;;;2.67;;
6467;SDS011;3267;48.794;9.928;2023-04-15T06:08:47;6.00;;;2.92;;
6467;SDS011;3267;48.794;9.928;2023-04-15T06:11:13;6.03;;;2.90;;
6467;SDS011;3267;48.794;9.928;2023-04-15T06:13:39;4.43;;;2.90;;
6467;SDS011;3267;48.794;9.928;2023-04-15T06:16:05;4.70;;;3.03;;
6467;SDS011;3267;48.794;9.928;2023-04-15T06:18:32;4.88;;;3.03;;
6467;SDS011;3267;48.794;9.928;2023-04-15T06:20:58;3.40;;;3.10;;
6467;SDS011;3267;48.794;9.928;2023-04-15T06:23:24;3.63;;;3.15;;
6467;SDS011;3267;48.794;9.928;2023-04-15T06:25:50;4.30;;;3.20;;
6467;SDS011;3267;48.794;9.928;2023-04-15T06:28:16;5.00;;;3.35;;
6467;SDS011;3267;48.794;9.928;2023-04-15T06:30:42;6.68;;;3.13;;
6467;SDS011;3267;48.794;9.928;2023-04-15T06:33:08;7.95;;;4.30;;
6467;SDS011;3267;48.794;9.928;2023-04-15T06:35:34;4.53;;;3.58;;
6467;SDS011;3267;48.794;9.928;2023-04-15T06:38:00;4.70;;;3.00;;
6467;SDS011;3267;48.794;9.928;2023-04-15T06:40:26;5.65;;;3.47;;
6467;SDS011;3267;48.794;9.928;2023-04-15T06:42:53;4.90;;;3.22;;
6467;SDS011;3267;48.794;9.928;2023-04-15T06:45:20;5.95;;;3.08;;
6467;SDS011;3267;48.794;9.928;2023-04-15T06:47:46;6.13;;;3.08;;
6467;SDS011;3267;48.794;9.928;2023-04-15T06:50:12;4.40;;;2.95;;
6467;SDS011;3267;48.794;9.928;2023-04-15T06:52:38;5.10;;;3.10;;
6467;SDS011;3267;48.794;9.928;2023-04-15T06:55:05;5.15;;;2.65;;
6467;SDS011;3267;48.794;9.928;2023-04-15T06:57:32;5.07;;;2.72;;
6467;SDS011;3267;48.794;9.928;2023-04-15T06:59:58;3.47;;;2.67;;
6467;SDS011;3267;48.794;9.928;2023-04-15T07:02:25;3.88;;;2.42;;
6467;SDS011;3267;48.794;9.928;2023-04-15T07:04:51;4.82;;;2.53;;
6467;SDS011;3267;48.794;9.928;2023-04-15T07:07:17;2.47;;;2.15;;
6467;SDS011;3267;48.794;9.928;2023-04-15T07:09:43;3.85;;;2.42;;
6467;SDS011;3267;48.794;9.928;2023-04-15T07:12:09;7.78;;;2.67;;
6467;SDS011;3267;48.794;9.928;2023-04-15T07:14:36;6.50;;;3.40;;
6467;SDS011;3267;48.794;9.928;2023-04-15T07:17:02;8.13;;;2.85;;
6467;SDS011;3267;48.794;9.928;2023-04-15T07:19:28;3.47;;;2.28;;
6467;SDS011;3267;48.794;9.928;2023-04-15T07:21:54;5.25;;;2.88;;
6467;SDS011;3267;48.794;9.928;2023-04-15T07:24:20;3.70;;;2.25;;
6467;SDS011;3267;48.794;9.928;2023-04-15T07:26:50;3.08;;;2.60;;
6467;SDS011;3267;48.794;9.928;2023-04-15T07:29:16;5.65;;;2.65;;
6467;SDS011;3267;48.794;9.928;2023-04-15T07:31:42;7.38;;;2.88;;
6467;SDS011;3267;48.794;9.928;2023-04-15T07:34:08;6.90;;;2.63;;
6467;SDS011;3267;48.794;9.928;2023-04-15T07:36:35;4.22;;;2.47;;
6467;SDS011;3267;48.794;9.928;2023-04-15T07:39:01;3.85;;;2.75;;
6467;SDS011;3267;48.794;9.928;2023-04-15T07:41:28;3.47;;;2.58;;
6467;SDS011;3267;48.794;9.928;2023-04-15T07:43:55;4.72;;;2.67;;
6467;SDS011;3267;48.794;9.928;2023-04-15T07:46:21;3.67;;;2.75;;
6467;SDS011;3267;48.794;9.928;2023-04-15T07:48:48;14.20;;;3.20;;
6467;SDS011;3267;48.794;9.928;2023-04-15T07:51:15;7.10;;;2.80;;
6467;SDS011;3267;48.794;9.928;2023-04-15T07:53:41;5.13;;;2.35;;
6467;SDS011;3267;48.794;9.928;2023-04-15T07:56:08;6.30;;;2.55;;
6467;SDS011;3267;48.794;9.928;2023-04-15T07:58:35;4.88;;;2.47;;
6467;SDS011;3267;48.794;9.928;2023-04-15T08:01:01;6.13;;;2.40;;
6467;SDS011;3267;48.794;9.928;2023-04-15T08:03:27;5.32;;;3.08;;
6467;SDS011;3267;48.794;9.928;2023-04-15T08:05:53;5.07;;;2.85;;
6467;SDS011;3267;48.794;9.928;2023-04-15T08:08:19;5.75;;;2.67;;
6467;SDS011;3267;48.794;9.928;2023-04-15T08:10:46;6.28;;;2.53;;
6467;SDS011;3267;48.794;9.928;2023-04-15T08:13:12;5.22;;;2.70;;
6467;SDS011;3267;48.794;9.928;2023-04-15T08:15:38;5.18;;;2.83;;
6467;SDS011;3267;48.794;9.928;2023-04-15T08:18:04;3.92;;;2.20;;
6467;SDS011;3267;48.794;9.928;2023-04-15T08:20:30;7.35;;;2.40;;
6467;SDS011;3267;48.794;9.928;2023-04-15T08:22:56;4.10;;;2.30;;
6467;SDS011;3267;48.794;9.928;2023-04-15T08:25:22;3.58;;;2.20;;
6467;SDS011;3267;48.794;9.928;2023-04-15T08:27:48;2.55;;;2.08;;
6467;SDS011;3267;48.794;9.928;2023-04-15T08:30:15;5.28;;;2.00;;
6467;SDS011;3267;48.794;9.928;2023-04-15T08:32:41;6.85;;;2.33;;
6467;SDS011;3267;48.794;9.928;2023-04-15T08:35:07;6.45;;;1.98;;
6467;SDS011;3267;48.794;9.928;2023-04-15T08:37:34;4.18;;;2.25;;
6467;SDS011;3267;48.794;9.928;2023-04-15T08:40:00;2.17;;;1.55;;
6467;SDS011;3267;48.794;9.928;2023-04-15T08:42:27;4.75;;;2.20;;
6467;SDS011;3267;48.794;9.928;2023-04-15T08:44:58;6.45;;;2.35;;
6467;SDS011;3267;48.794;9.928;2023-04-15T08:47:29;4.38;;;2.30;;
6467;SDS011;3267;48.794;9.928;2023-04-15T08:49:58;5.53;;;1.90;;
6467;SDS011;3267;48.794;9.928;2023-04-15T08:52:25;3.42;;;2.42;;
6467;SDS011;3267;48.794;9.928;2023-04-15T08:54:51;4.75;;;1.90;;
6467;SDS011;3267;48.794;9.928;2023-04-15T08:57:24;4.88;;;2.40;;
6467;SDS011;3267;48.794;9.928;2023-04-15T08:59:51;3.47;;;1.83;;
6467;SDS011;3267;48.794;9.928;2023-04-15T09:02:18;3.63;;;1.95;;
6467;SDS011;3267;48.794;9.928;2023-04-15T09:04:44;4.05;;;1.95;;
6467;SDS011;3267;48.794;9.928;2023-04-15T09:07:11;3.45;;;2.28;;
6467;SDS011;3267;48.794;9.928;2023-04-15T09:09:37;4.35;;;2.30;;
6467;SDS011;3267;48.794;9.928;2023-04-15T09:12:04;3.28;;;2.00;;
6467;SDS011;3267;48.794;9.928;2023-04-15T09:14:30;2.85;;;2.17;;
6467;SDS011;3267;48.794;9.928;2023-04-15T09:19:23;3.35;;;2.10;;
6467;SDS011;3267;48.794;9.928;2023-04-15T09:21:50;4.25;;;2.15;;
6467;SDS011;3267;48.794;9.928;2023-04-15T09:24:17;5.57;;;2.28;;
6467;SDS011;3267;48.794;9.928;2023-04-15T09:26:43;4.75;;;2.17;;
6467;SDS011;3267;48.794;9.928;2023-04-15T09:29:09;4.15;;;1.70;;
6467;SDS011;3267;48.794;9.928;2023-04-15T09:31:39;3.35;;;2.05;;
6467;SDS011;3267;48.794;9.928;2023-04-15T09:34:07;1.98;;;1.77;;
6467;SDS011;3267;48.794;9.928;2023-04-15T09:36:50;4.97;;;2.10;;
6467;SDS011;3267;48.794;9.928;2023-04-15T09:39:17;6.38;;;1.80;;
6467;SDS011;3267;48.794;9.928;2023-04-15T09:41:43;3.70;;;2.15;;
6467;SDS011;3267;48.794;9.928;2023-04-15T09:44:24;3.10;;;1.90;;
6467;SDS011;3267;48.794;9.928;2023-04-15T09:46:50;3.95;;;1.90;;
6467;SDS011;3267;48.794;9.928;2023-04-15T09:49:17;3.85;;;2.05;;
6467;SDS011;3267;48.794;9.928;2023-04-15T09:51:44;4.28;;;1.85;;
6467;SDS011;3267;48.794;9.928;2023-04-15T09:54:11;3.28;;;1.92;;
6467;SDS011;3267;48.794;9.928;2023-04-15T09:56:37;2.90;;;1.95;;
6467;SDS011;3267;48.794;9.928;2023-04-15T09:59:07;3.65;;;2.05;;
6467;SDS011;3267;48.794;9.928;2023-04-15T10:01:33;4.05;;;2.10;;
6467;SDS011;3267;48.794;9.928;2023-04-15T10:04:03;4.07;;;2.40;;
6467;SDS011;3267;48.794;9.928;2023-04-15T10:06:30;5.15;;;2.97;;
6467;SDS011;3267;48.794;9.928;2023-04-15T10:08:57;3.67;;;2.47;;
6467;SDS011;3267;48.794;9.928;2023-04-15T10:11:23;5.30;;;2.80;;
6467;SDS011;3267;48.794;9.928;2023-04-15T10:13:50;5.50;;;2.45;;
6467;SDS011;3267;48.794;9.928;2023-04-15T10:16:18;4.07;;;2.65;;
6467;SDS011;3267;48.794;9.928;2023-04-15T10:18:45;5.90;;;2.10;;
6467;SDS011;3267;48.794;9.928;2023-04-15T10:21:12;3.10;;;2.00;;
6467;SDS011;3267;48.794;9.928;2023-04-15T10:23:42;2.22;;;2.00;;
6467;SDS011;3267;48.794;9.928;2023-04-15T10:26:08;3.80;;;2.20;;
6467;SDS011;3267;48.794;9.928;2023-04-15T10:28:37;2.30;;;2.10;;
6467;SDS011;3267;48.794;9.928;2023-04-15T10:31:03;5.05;;;2.58;;
6467;SDS011;3267;48.794;9.928;2023-04-15T10:33:30;2.97;;;2.03;;
6467;SDS011;3267;48.794;9.928;2023-04-15T10:35:56;4.28;;;2.60;;
6467;SDS011;3267;48.794;9.928;2023-04-15T10:38:39;4.43;;;2.42;;
6467;SDS011;3267;48.794;9.928;2023-04-15T10:41:16;5.47;;;2.10;;
6467;SDS011;3267;48.794;9.928;2023-04-15T10:43:51;3.90;;;2.33;;
6467;SDS011;3267;48.794;9.928;2023-04-15T10:46:20;3.65;;;2.65;;
6467;SDS011;3267;48.794;9.928;2023-04-15T10:49:07;3.20;;;2.53;;
6467;SDS011;3267;48.794;9.928;2023-04-15T10:51:43;5.03;;;2.70;;
6467;SDS011;3267;48.794;9.928;2023-04-15T10:54:43;3.15;;;2.42;;
6467;SDS011;3267;48.794;9.928;2023-04-15T11:00:15;6.57;;;2.70;;
6467;SDS011;3267;48.794;9.928;2023-04-15T11:05:06;4.80;;;2.53;;
6467;SDS011;3267;48.794;9.928;2023-04-15T11:10:05;2.47;;;2.28;;
6467;SDS011;3267;48.794;9.928;2023-04-15T11:15:34;3.03;;;2.28;;
6467;SDS011;3267;48.794;9.928;2023-04-15T11:20:52;4.53;;;2.72;;
6467;SDS011;3267;48.794;9.928;2023-04-15T11:23:41;3.53;;;2.67;;
6467;SDS011;3267;48.794;9.928;2023-04-15T11:26:11;3.58;;;2.30;;
6467;SDS011;3267;48.794;9.928;2023-04-15T11:28:38;3.92;;;2.90;;
6467;SDS011;3267;48.794;9.928;2023-04-15T11:31:06;2.70;;;2.50;;
6467;SDS011;3267;48.794;9.928;2023-04-15T11:33:36;2.78;;;2.50;;
6467;SDS011;3267;48.794;9.928;2023-04-15T11:36:03;5.30;;;2.75;;
6467;SDS011;3267;48.794;9.928;2023-04-15T11:38:29;5.28;;;2.65;;
6467;SDS011;3267;48.794;9.928;2023-04-15T11:40:55;3.53;;;2.67;;
6467;SDS011;3267;48.794;9.928;2023-04-15T11:43:21;5.10;;;2.95;;
6467;SDS011;3267;48.794;9.928;2023-04-15T11:45:49;4.82;;;2.95;;
6467;SDS011;3267;48.794;9.928;2023-04-15T11:48:17;4.30;;;3.05;;
6467;SDS011;3267;48.794;9.928;2023-04-15T11:50:43;6.30;;;3.00;;
6467;SDS011;3267;48.794;9.928;2023-04-15T11:53:10;4.28;;;2.50;;
6467;SDS011;3267;48.794;9.928;2023-04-15T11:55:47;4.75;;;2.55;;
6467;SDS011;3267;48.794;9.928;2023-04-15T11:58:15;4.63;;;2.45;;
6467;SDS011;3267;48.794;9.928;2023-04-15T12:00:57;5.65;;;2.53;;
6467;SDS011;3267;48.794;9.928;2023-04-15T12:03:26;3.00;;;1.92;;
6467;SDS011;3267;48.794;9.928;2023-04-15T12:11:37;2.05;;;1.50;;
6467;SDS011;3267;48.794;9.928;2023-04-15T12:14:11;5.00;;;1.73;;
6467;SDS011;3267;48.794;9.928;2023-04-15T12:16:46;1.38;;;1.17;;
6467;SDS011;3267;48.794;9.928;2023-04-15T12:19:14;1.35;;;1.25;;
6467;SDS011;3267;48.794;9.928;2023-04-15T12:21:50;2.22;;;1.50;;
6467;SDS011;3267;48.794;9.928;2023-04-15T12:24:21;2.25;;;1.60;;
6467;SDS011;3267;48.794;9.928;2023-04-15T12:26:54;2.80;;;1.70;;
6467;SDS011;3267;48.794;9.928;2023-04-15T12:29:25;1.40;;;1.30;;
6467;SDS011;3267;48.794;9.928;2023-04-15T12:32:06;3.90;;;1.25;;
6467;SDS011;3267;48.794;9.928;2023-04-15T12:34:35;1.35;;;1.25;;
6467;SDS011;3267;48.794;9.928;2023-04-15T12:37:06;2.40;;;2.20;;
6467;SDS011;3267;48.794;9.928;2023-04-15T12:39:35;2.78;;;1.55;;
6467;SDS011;3267;48.794;9.928;2023-04-15T12:42:05;2.45;;;1.60;;
6467;SDS011;3267;48.794;9.928;2023-04-15T12:44:31;3.50;;;1.60;;
6467;SDS011;3267;48.794;9.928;2023-04-15T12:46:58;2.10;;;1.50;;
6467;SDS011;3267;48.794;9.928;2023-04-15T12:49:24;3.03;;;1.70;;
6467;SDS011;3267;48.794;9.928;2023-04-15T12:51:55;1.33;;;1.23;;
6467;SDS011;3267;48.794;9.928;2023-04-15T12:54:21;2.35;;;1.17;;
6467;SDS011;3267;48.794;9.928;2023-04-15T12:56:48;2.10;;;1.20;;
6467;SDS011;3267;48.794;9.928;2023-04-15T12:59:15;1.98;;;1.30;;
6467;SDS011;3267;48.794;9.928;2023-04-15T13:01:44;1.70;;;1.60;;
6467;SDS011;3267;48.794;9.928;2023-04-15T13:04:11;2.00;;;1.40;;
6467;SDS011;3267;48.794;9.928;2023-04-15T13:06:37;1.30;;;1.20;;
6467;SDS011;3267;48.794;9.928;2023-04-15T13:09:03;1.52;;;1.15;;
6467;SDS011;3267;48.794;9.928;2023-04-15T13:11:29;1.10;;;1.10;;
6467;SDS011;3267;48.794;9.928;2023-04-15T13:14:01;3.10;;;1.33;;
6467;SDS011;3267;48.794;9.928;2023-04-15T13:16:28;4.70;;;1.15;;
6467;SDS011;3267;48.794;9.928;2023-04-15T13:18:54;2.47;;;1.23;;
6467;SDS011;3267;48.794;9.928;2023-04-15T13:21:20;6.43;;;1.23;;
6467;SDS011;3267;48.794;9.928;2023-04-15T13:23:47;3.55;;;1.13;;
6467;SDS011;3267;48.794;9.928;2023-04-15T13:26:14;1.08;;;0.98;;
6467;SDS011;3267;48.794;9.928;2023-04-15T13:28:40;1.70;;;1.17;;
6467;SDS011;3267;48.794;9.928;2023-04-15T13:31:05;1.45;;;1.35;;
6467;SDS011;3267;48.794;9.928;2023-04-15T13:33:44;2.20;;;1.40;;
6467;SDS011;3267;48.794;9.928;2023-04-15T13:36:09;1.08;;;0.93;;
6467;SDS011;3267;48.794;9.928;2023-04-15T13:38:35;2.10;;;1.50;;
6467;SDS011;3267;48.794;9.928;2023-04-15T13:41:04;1.33;;;1.05;;
6467;SDS011;3267;48.794;9.928;2023-04-15T13:43:29;1.48;;;1.02;;
6467;SDS011;3267;48.794;9.928;2023-04-15T13:45:57;1.42;;;1.30;;
6467;SDS011;3267;48.794;9.928;2023-04-15T13:48:23;1.02;;;0.95;;
6467;SDS011;3267;48.794;9.928;2023-04-15T13:50:48;1.45;;;1.02;;
6467;SDS011;3267;48.794;9.928;2023-04-15T13:53:14;1.45;;;1.00;;
6467;SDS011;3267;48.794;9.928;2023-04-15T13:55:40;1.50;;;0.90;;
6467;SDS011;3267;48.794;9.928;2023-04-15T13:58:10;0.93;;;0.93;;
6467;SDS011;3267;48.794;9.928;2023-04-15T14:00:35;1.15;;;1.05;;
6467;SDS011;3267;48.794;9.928;2023-04-15T14:03:01;0.90;;;0.82;;
6467;SDS011;3267;48.794;9.928;2023-04-15T14:05:27;4.18;;;1.30;;
6467;SDS011;3267;48.794;9.928;2023-04-15T14:07:52;1.05;;;1.02;;
6467;SDS011;3267;48.794;9.928;2023-04-15T14:10:18;5.50;;;1.73;;
6467;SDS011;3267;48.794;9.928;2023-04-15T14:12:44;1.40;;;1.30;;
6467;SDS011;3267;48.794;9.928;2023-04-15T14:15:10;1.10;;;0.90;;
6467;SDS011;3267;48.794;9.928;2023-04-15T14:17:35;2.15;;;0.98;;
6467;SDS011;3267;48.794;9.928;2023-04-15T14:20:01;2.35;;;1.10;;
6467;SDS011;3267;48.794;9.928;2023-04-15T14:22:27;1.60;;;0.90;;
6467;SDS011;3267;48.794;9.928;2023-04-15T14:24:53;1.00;;;0.80;;
6467;SDS011;3267;48.794;9.928;2023-04-15T14:27:19;1.95;;;1.17;;
6467;SDS011;3267;48.794;9.928;2023-04-15T14:29:45;1.85;;;1.25;;
6467;SDS011;3267;48.794;9.928;2023-04-15T14:32:11;2.38;;;1.00;;
6467;SDS011;3267;48.794;9.928;2023-04-15T14:34:37;0.85;;;0.80;;
6467;SDS011;3267;48.794;9.928;2023-04-15T14:37:02;1.05;;;1.05;;
6467;SDS011;3267;48.794;9.928;2023-04-15T14:39:29;1.67;;;1.10;;
6467;SDS011;3267;48.794;9.928;2023-04-15T14:41:55;3.38;;;1.00;;
6467;SDS011;3267;48.794;9.928;2023-04-15T14:44:20;0.98;;;0.80;;
6467;SDS011;3267;48.794;9.928;2023-04-15T14:46:46;1.27;;;1.08;;
6467;SDS011;3267;48.794;9.928;2023-04-15T14:49:12;0.80;;;0.80;;
6467;SDS011;3267;48.794;9.928;2023-04-15T14:51:38;0.90;;;0.85;;
6467;SDS011;3267;48.794;9.928;2023-04-15T14:54:04;0.85;;;0.85;;
6467;SDS011;3267;48.794;9.928;2023-04-15T14:56:29;1.10;;;0.85;;
6467;SDS011;3267;48.794;9.928;2023-04-15T14:58:56;1.13;;;0.90;;
6467;SDS011;3267;48.794;9.928;2023-04-15T15:01:21;0.98;;;0.85;;
6467;SDS011;3267;48.794;9.928;2023-04-15T15:03:47;1.48;;;1.08;;
6467;SDS011;3267;48.794;9.928;2023-04-15T15:06:13;1.23;;;1.13;;
6467;SDS011;3267;48.794;9.928;2023-04-15T15:08:39;0.98;;;0.88;;
6467;SDS011;3267;48.794;9.928;2023-04-15T15:11:05;1.35;;;0.80;;
6467;SDS011;3267;48.794;9.928;2023-04-15T15:13:31;0.70;;;0.70;;
6467;SDS011;3267;48.794;9.928;2023-04-15T15:15:56;1.00;;;0.70;;
6467;SDS011;3267;48.794;9.928;2023-04-15T15:18:22;0.80;;;0.80;;
6467;SDS011;3267;48.794;9.928;2023-04-15T15:20:49;0.70;;;0.70;;
6467;SDS011;3267;48.794;9.928;2023-04-15T15:23:15;0.80;;;0.80;;
6467;SDS011;3267;48.794;9.928;2023-04-15T15:25:41;1.50;;;1.40;;
6467;SDS011;3267;48.794;9.928;2023-04-15T15:28:07;1.15;;;1.10;;
6467;SDS011;3267;48.794;9.928;2023-04-15T15:30:33;1.00;;;1.00;;
6467;SDS011;3267;48.794;9.928;2023-04-15T15:32:58;2.97;;;1.83;;
6467;SDS011;3267;48.794;9.928;2023-04-15T15:35:24;1.67;;;1.35;;
6467;SDS011;3267;48.794;9.928;2023-04-15T15:37:50;2.33;;;2.13;;
6467;SDS011;3267;48.794;9.928;2023-04-15T15:40:16;1.25;;;1.25;;
6467;SDS011;3267;48.794;9.928;2023-04-15T15:42:42;1.02;;;0.98;;
6467;SDS011;3267;48.794;9.928;2023-04-15T15:45:07;1.48;;;1.08;;
6467;SDS011;3267;48.794;9.928;2023-04-15T15:47:33;0.70;;;0.70;;
6467;SDS011;3267;48.794;9.928;2023-04-15T15:49:59;0.65;;;0.65;;
6467;SDS011;3267;48.794;9.928;2023-04-15T15:52:25;0.70;;;0.70;;
6467;SDS011;3267;48.794;9.928;2023-04-15T15:54:51;0.90;;;0.90;;
6467;SDS011;3267;48.794;9.928;2023-04-15T15:57:17;0.80;;;0.80;;
6467;SDS011;3267;48.794;9.928;2023-04-15T15:59:42;0.70;;;0.70;;
6467;SDS011;3267;48.794;9.928;2023-04-15T16:02:11;0.80;;;0.80;;
6467;SDS011;3267;48.794;9.928;2023-04-15T16:04:38;1.00;;;1.00;;
6467;SDS011;3267;48.794;9.928;2023-04-15T16:07:04;0.77;;;0.77;;
6467;SDS011;3267;48.794;9.928;2023-04-15T16:09:30;0.93;;;0.90;;
6467;SDS011;3267;48.794;9.928;2023-04-15T16:11:56;0.70;;;0.70;;
6467;SDS011;3267;48.794;9.928;2023-04-15T16:14:23;0.80;;;0.80;;
6467;SDS011;3267;48.794;9.928;2023-04-15T16:16:50;0.90;;;0.90;;
6467;SDS011;3267;48.794;9.928;2023-04-15T16:19:16;1.00;;;1.00;;
6467;SDS011;3267;48.794;9.928;2023-04-15T16:21:43;0.88;;;0.88;;
6467;SDS011;3267;48.794;9.928;2023-04-15T16:24:09;1.27;;;0.82;;
6467;SDS011;3267;48.794;9.928;2023-04-15T16:26:35;2.00;;;1.08;;
6467;SDS011;3267;48.794;9.928;2023-04-15T16:29:00;1.25;;;1.20;;
6467;SDS011;3267;48.794;9.928;2023-04-15T16:31:26;1.38;;;1.00;;
6467;SDS011;3267;48.794;9.928;2023-04-15T16:33:52;1.10;;;1.10;;
6467;SDS011;3267;48.794;9.928;2023-04-15T16:36:17;1.55;;;1.27;;
6467;SDS011;3267;48.794;9.928;2023-04-15T16:38:43;1.30;;;1.25;;
6467;SDS011;3267;48.794;9.928;2023-04-15T16:41:13;1.65;;;1.20;;
6467;SDS011;3267;48.794;9.928;2023-04-15T16:43:39;1.70;;;1.60;;
6467;SDS011;3267;48.794;9.928;2023-04-15T16:46:05;1.27;;;1.20;;
6467;SDS011;3267;48.794;9.928;2023-04-15T16:48:32;1.25;;;1.25;;
6467;SDS011;3267;48.794;9.928;2023-04-15T16:50:57;1.60;;;1.42;;
6467;SDS011;3267;48.794;9.928;2023-04-15T16:53:24;1.52;;;1.40;;
6467;SDS011;3267;48.794;9.928;2023-04-15T16:55:50;1.42;;;1.33;;
6467;SDS011;3267;48.794;9.928;2023-04-15T16:58:16;3.70;;;1.30;;
6467;SDS011;3267;48.794;9.928;2023-04-15T17:00:42;1.30;;;1.30;;
6467;SDS011;3267;48.794;9.928;2023-04-15T17:03:08;1.08;;;1.08;;
6467;SDS011;3267;48.794;9.928;2023-04-15T17:05:34;1.63;;;1.52;;
6467;SDS011;3267;48.794;9.928;2023-04-15T17:08:00;1.42;;;1.33;;
6467;SDS011;3267;48.794;9.928;2023-04-15T17:10:26;1.15;;;1.15;;
6467;SDS011;3267;48.794;9.928;2023-04-15T17:12:54;1.58;;;1.48;;
6467;SDS011;3267;48.794;9.928;2023-04-15T17:15:20;1.70;;;1.60;;
6467;SDS011;3267;48.794;9.928;2023-04-15T17:17:46;2.13;;;1.70;;
6467;SDS011;3267;48.794;9.928;2023-04-15T17:20:13;1.70;;;1.60;;
6467;SDS011;3267;48.794;9.928;2023-04-15T17:22:41;2.63;;;1.55;;
6467;SDS011;3267;48.794;9.928;2023-04-15T17:25:07;1.45;;;1.35;;
6467;SDS011;3267;48.794;9.928;2023-04-15T17:27:33;1.27;;;1.20;;
6467;SDS011;3267;48.794;9.928;2023-04-15T17:30:05;1.95;;;1.20;;
6467;SDS011;3267;48.794;9.928;2023-04-15T17:32:31;1.30;;;1.25;;
6467;SDS011;3267;48.794;9.928;2023-04-15T17:35:49;1.13;;;1.02;;
6467;SDS011;3267;48.794;9.928;2023-04-15T17:38:15;1.15;;;1.15;;
6467;SDS011;3267;48.794;9.928;2023-04-15T17:40:41;1.73;;;1.38;;
6467;SDS011;3267;48.794;9.928;2023-04-15T17:43:07;1.45;;;1.40;;
6467;SDS011;3267;48.794;9.928;2023-04-15T17:45:33;1.10;;;1.10;;
6467;SDS011;3267;48.794;9.928;2023-04-15T17:47:59;2.17;;;1.48;;
6467;SDS011;3267;48.794;9.928;2023-04-15T17:50:27;1.20;;;1.20;;
6467;SDS011;3267;48.794;9.928;2023-04-15T17:52:54;1.50;;;1.38;;
6467;SDS011;3267;48.794;9.928;2023-04-15T17:55:20;1.38;;;1.27;;
6467;SDS011;3267;48.794;9.928;2023-04-15T17:57:46;1.17;;;1.17;;
6467;SDS011;3267;48.794;9.928;2023-04-15T18:00:12;2.33;;;1.65;;
6467;SDS011;3267;48.794;9.928;2023-04-15T18:02:39;1.50;;;1.40;;
6467;SDS011;3267;48.794;9.928;2023-04-15T18:05:05;3.00;;;1.80;;
6467;SDS011;3267;48.794;9.928;2023-04-15T18:07:31;2.60;;;1.60;;
6467;SDS011;3267;48.794;9.928;2023-04-15T18:09:57;2.30;;;1.55;;
6467;SDS011;3267;48.794;9.928;2023-04-15T18:12:23;1.73;;;1.63;;
6467;SDS011;3267;48.794;9.928;2023-04-15T18:14:49;1.63;;;1.52;;
6467;SDS011;3267;48.794;9.928;2023-04-15T18:17:16;2.25;;;1.70;;
6467;SDS011;3267;48.794;9.928;2023-04-15T18:19:44;1.85;;;1.75;;
6467;SDS011;3267;48.794;9.928;2023-04-15T18:22:11;1.83;;;1.60;;
6467;SDS011;3267;48.794;9.928;2023-04-15T18:24:37;1.80;;;1.70;;
6467;SDS011;3267;48.794;9.928;2023-04-15T18:27:03;1.60;;;1.50;;
6467;SDS011;3267;48.794;9.928;2023-04-15T18:29:29;4.57;;;2.67;;
6467;SDS011;3267;48.794;9.928;2023-04-15T18:31:55;2.08;;;1.88;;
6467;SDS011;3267;48.794;9.928;2023-04-15T18:34:24;1.90;;;1.73;;
6467;SDS011;3267;48.794;9.928;2023-04-15T18:36:50;2.20;;;1.50;;
6467;SDS011;3267;48.794;9.928;2023-04-15T18:39:16;1.70;;;1.60;;
6467;SDS011;3267;48.794;9.928;2023-04-15T18:41:42;2.85;;;1.75;;
6467;SDS011;3267;48.794;9.928;2023-04-15T18:44:08;1.90;;;1.77;;
6467;SDS011;3267;48.794;9.928;2023-04-15T18:46:34;1.63;;;1.52;;
6467;SDS011;3267;48.794;9.928;2023-04-15T18:49:00;1.80;;;1.70;;
6467;SDS011;3267;48.794;9.928;2023-04-15T18:51:26;3.38;;;2.15;;
6467;SDS011;3267;48.794;9.928;2023-04-15T18:53:52;2.78;;;2.00;;
6467;SDS011;3267;48.794;9.928;2023-04-15T18:56:18;3.08;;;2.05;;
6467;SDS011;3267;48.794;9.928;2023-04-15T18:58:44;2.03;;;1.73;;
6467;SDS011;3267;48.794;9.928;2023-04-15T19:01:11;1.95;;;1.85;;
6467;SDS011;3267;48.794;9.928;2023-04-15T19:03:37;2.55;;;1.80;;
6467;SDS011;3267;48.794;9.928;2023-04-15T19:06:03;1.92;;;1.83;;
6467;SDS011;3267;48.794;9.928;2023-04-15T19:08:30;2.28;;;2.08;;
6467;SDS011;3267;48.794;9.928;2023-04-15T19:11:02;2.40;;;2.20;;
6467;SDS011;3267;48.794;9.928;2023-04-15T19:13:29;1.52;;;1.52;;
6467;SDS011;3267;48.794;9.928;2023-04-15T19:15:55;1.88;;;1.77;;
6467;SDS011;3267;48.794;9.928;2023-04-15T19:18:21;1.23;;;1.23;;
6467;SDS011;3267;48.794;9.928;2023-04-15T19:20:47;1.52;;;1.42;;
6467;SDS011;3267;48.794;9.928;2023-04-15T19:23:15;1.40;;;1.30;;
6467;SDS011;3267;48.794;9.928;2023-04-15T19:25:41;1.15;;;1.15;;
6467;SDS011;3267;48.794;9.928;2023-04-15T19:28:07;1.35;;;1.25;;
6467;SDS011;3267;48.794;9.928;2023-04-15T19:30:33;1.40;;;1.30;;
6467;SDS011;3267;48.794;9.928;2023-04-15T19:33:00;1.38;;;1.27;;
6467;SDS011;3267;48.794;9.928;2023-04-15T19:35:29;1.15;;;1.15;;
6467;SDS011;3267;48.794;9.928;2023-04-15T19:37:55;1.00;;;1.00;;